Latest Weather Observations for Goulburn Airport

IDN60801

Issued at 7:05 am EST Thursday 31 July 2014 (issued every 30 minutes, with the page automatically refreshed every 10 minutes)

About weather observations | Map of weather stations | Latest weather observations for NSW | Other Formats
Station Details ID: 070330 Name: GOULBURN AIRPORT AWS Lat: -34.81 Lon: 149.73 Height: 640.0 m
Data from the previous 72 hours. | See also: Recent months at Goulburn Airport
Date/Time
EST
Temp
°C
App
Temp
°C
Dew
Point
Rel
Hum
%
Delta-T
°C
Wind Press
QNH
hPa
Press
MSL
hPa
Rain
since 9 am
mm
Dir
 
Spd
km/h
Gust
km/h
Spd
kts
Gust
kts
31/07:00am 9.5 2.0 3.5 66 2.7 NW 32 39 17 21 1012.6 - 0.0
31/06:30am 9.4 1.9 3.4 66 2.7 NW 32 41 17 22 1012.6 - 0.0
31/06:00am 9.4 2.3 3.6 67 2.6 WNW 30 41 16 22 1012.7 1013.8 0.0
31/05:30am 9.5 2.5 4.1 69 2.5 WNW 30 37 16 20 1012.9 - 0.0
31/05:00am 9.3 3.5 4.3 71 2.3 NW 24 33 13 18 1013.1 - 0.0
31/04:30am 9.3 3.9 4.7 73 2.1 NW 22 30 12 16 1013.4 - 0.0
31/04:00am 8.1 4.4 4.5 78 1.6 NNW 13 17 7 9 1013.8 - 0.0
31/03:30am 8.4 4.4 4.8 78 1.7 NNW 15 19 8 10 1014.1 - 0.0
31/03:00am 8.8 4.8 5.0 77 1.8 NNW 15 20 8 11 1014.4 1015.5 0.0
31/02:30am 9.5 5.3 5.5 76 1.9 NNW 17 22 9 12 1014.7 - 0.0
31/02:00am 10.0 5.4 5.8 75 2.0 NNW 19 24 10 13 1015.1 - 0.0
31/01:30am 10.7 5.6 6.1 73 2.2 NW 22 30 12 16 1015.3 - 0.0
31/01:00am 10.5 5.9 6.5 76 1.9 NW 20 28 11 15 1015.5 - 0.0
31/12:30am 10.3 5.7 6.5 77 1.8 NW 20 26 11 14 1015.8 - 0.0
31/12:00am 10.4 6.8 6.7 78 1.8 NNW 15 20 8 11 1016.2 1017.4 0.0
 
Date/Time
EST
Temp
°C
App
Temp
°C
Dew
Point
Rel
Hum
%
Delta-T
°C
Wind Press
QNH
hPa
Press
MSL
hPa
Rain
since 9 am
mm
Dir
 
Spd
km/h
Gust
km/h
Spd
kts
Gust
kts
30/11:30pm 10.7 5.8 6.8 77 1.9 NW 22 30 12 16 1016.2 - 0.0
30/11:00pm 10.7 4.6 6.8 77 1.9 WNW 28 37 15 20 1016.3 - 0.0
30/10:30pm 10.9 4.5 6.8 76 2.0 WNW 30 39 16 21 1016.4 - 0.0
30/10:00pm 10.3 5.4 6.8 79 1.7 NW 22 30 12 16 1016.5 - 0.0
30/09:30pm 10.4 6.0 7.3 81 1.5 NW 20 30 11 16 1016.7 - 0.0
30/09:00pm 10.4 6.1 7.1 80 1.6 NW 19 28 10 15 1016.7 1017.8 0.0
30/08:30pm 10.5 6.6 7.2 80 1.6 NW 17 20 9 11 1016.9 - 0.0
30/08:00pm 11.6 5.8 7.9 78 1.9 NW 28 37 15 20 1017.1 - 0.0
30/07:30pm 11.7 5.9 8.0 78 1.9 NW 28 39 15 21 1017.2 - 0.0
30/07:00pm 11.7 6.3 8.0 78 1.9 NW 26 35 14 19 1017.0 - 0.0
30/06:30pm 11.8 6.4 7.9 77 2.0 NW 26 35 14 19 1016.9 - 0.0
30/06:00pm 12.0 6.5 7.7 75 2.2 WNW 26 39 14 21 1016.5 1017.7 0.0
30/05:30pm 12.3 6.0 7.4 72 2.5 WNW 30 43 16 23 1016.4 - 0.0
30/05:08pm 12.3 5.6 7.4 72 2.5 WNW 32 50 17 27 1016.2 - 0.0
30/05:00pm 12.4 5.5 7.1 70 2.6 WNW 33 48 18 26 1016.0 - 0.0
30/04:49pm 12.6 6.7 7.3 70 2.7 WNW 28 46 15 25 1016.1 - 0.0
30/04:30pm 12.7 5.8 7.2 69 2.8 WNW 33 48 18 26 1015.9 - 0.0
30/04:20pm 13.0 6.1 7.2 68 2.9 WNW 33 52 18 28 1015.7 - 0.0
30/04:00pm 12.9 6.2 7.4 69 2.8 WNW 32 46 17 25 1015.6 - 0.0
30/03:51pm 13.0 6.1 7.2 68 2.9 WNW 33 52 18 28 1015.6 - 0.0
30/03:30pm 13.4 5.3 7.0 65 3.2 WNW 39 50 21 27 1015.5 - 0.0
30/03:04pm 13.3 6.0 7.1 66 3.1 WNW 35 54 19 29 1016.0 - 0.0
30/03:00pm 13.3 6.3 6.9 65 3.2 WNW 33 50 18 27 1016.0 1017.1 0.0
30/02:49pm 13.3 5.6 7.3 67 3.0 WNW 37 56 20 30 1016.0 - 0.0
30/02:30pm 13.2 4.7 7.0 66 3.1 WNW 41 50 22 27 1015.9 - 0.0
30/02:11pm 13.6 5.3 7.6 67 3.1 WNW 41 59 22 32 1015.8 - 0.0
30/02:00pm 13.2 5.2 7.4 68 2.9 WNW 39 54 21 29 1016.0 - 0.0
30/01:30pm 13.3 4.4 7.5 68 2.9 WNW 44 63 24 34 1015.9 - 0.0
30/01:03pm 12.7 3.4 7.4 70 2.7 WNW 46 65 25 35 1016.4 - 0.0
30/01:00pm 12.9 3.2 7.6 70 2.7 WNW 48 65 26 35 1016.4 - 0.0
30/12:54pm 12.5 3.0 6.8 68 2.8 WNW 46 65 25 35 1016.4 - 0.0
30/12:30pm 13.5 5.1 7.3 66 3.1 WNW 41 54 22 29 1016.8 - 0.0
30/12:00pm 12.8 3.2 6.4 65 3.2 WNW 46 67 25 36 1017.0 1018.1 0.0
30/11:33am 13.2 4.4 7.4 68 2.9 WNW 43 61 23 33 1017.4 - 0.0
30/11:30am 12.8 3.7 7.0 68 2.9 WNW 44 57 24 31 1017.5 - 0.0
30/11:22am 12.8 3.8 7.3 69 2.8 WNW 44 57 24 31 1017.6 - 0.0
30/11:00am 12.5 3.6 7.6 72 2.5 WNW 44 65 24 35 1017.9 - 0.0
30/10:43am 12.6 5.4 7.5 71 2.6 WNW 35 59 19 32 1018.0 - 0.0
30/10:30am 12.3 4.4 7.8 74 2.3 WNW 39 52 21 28 1018.1 - 0.0
30/10:00am 12.0 4.5 7.9 76 2.1 WNW 37 57 20 31 1018.0 - 0.0
30/09:56am 12.3 4.7 9.0 80 1.7 WNW 39 57 21 31 1018.0 - 0.0
30/09:53am 11.8 3.6 8.3 79 1.8 WNW 41 57 22 31 1017.9 - 0.0
30/09:30am 11.3 4.4 8.7 84 1.3 WNW 35 50 19 27 1018.0 - 0.0
30/09:00am 9.6 4.2 8.0 90 0.8 WNW 26 35 14 19 1019.0 1020.2 0.0
30/08:41am 9.3 4.3 7.9 91 0.7 NW 24 32 13 17 1019.2 - 0.0
30/08:30am 9.2 4.1 7.8 91 0.7 NW 24 32 13 17 1019.4 - 0.0
30/08:00am 9.2 4.4 7.5 89 0.8 NW 22 28 12 15 1019.3 - 0.0
30/07:33am 9.3 4.1 7.1 86 1.1 NW 24 32 13 17 1018.9 - 0.0
30/07:30am 9.3 4.0 6.7 84 1.3 NW 24 32 13 17 1018.9 - 0.0
30/07:00am 9.3 4.7 6.4 82 1.4 NW 20 28 11 15 1018.5 - 0.0
30/06:30am 9.7 3.8 5.9 77 1.8 NW 26 33 14 18 1018.0 - 0.0
30/06:00am 9.6 4.4 5.6 76 1.9 NW 22 32 12 17 1017.5 1018.6 0.0
30/05:30am 9.7 4.1 5.5 75 2.0 NW 24 33 13 18 1017.1 - 0.0
30/05:00am 9.6 4.4 5.6 76 1.9 NW 22 30 12 16 1016.9 - 0.0
30/04:30am 9.8 5.0 5.6 75 2.0 NW 20 28 11 15 1016.5 - 0.0
30/04:00am 9.9 4.3 5.5 74 2.1 WNW 24 35 13 19 1016.7 - 0.0
30/03:30am 9.5 4.8 5.1 74 2.1 NW 19 26 10 14 1016.7 - 0.0
30/03:00am 9.0 4.6 4.8 75 1.9 NW 17 24 9 13 1016.4 1017.6 0.0
30/02:30am 8.7 3.8 4.1 73 2.1 NW 19 26 10 14 1016.3 - 0.0
30/02:00am 8.6 4.3 3.4 70 2.3 NW 15 19 8 10 1016.1 - 0.0
30/01:30am 9.4 4.7 3.2 65 2.8 NW 17 26 9 14 1016.2 - 0.0
30/01:00am 8.5 4.5 2.7 67 2.5 NW 13 19 7 10 1016.2 - 0.0
30/12:30am 7.9 3.5 2.8 70 2.2 NNW 15 19 8 10 1016.1 - 0.0
30/12:00am 7.9 3.9 3.0 71 2.2 NNW 13 17 7 9 1016.2 1017.4 0.0
 
Date/Time
EST
Temp
°C
App
Temp
°C
Dew
Point
Rel
Hum
%
Delta-T
°C
Wind Press
QNH
hPa
Press
MSL
hPa
Rain
since 9 am
mm
Dir
 
Spd
km/h
Gust
km/h
Spd
kts
Gust
kts
29/11:30pm 9.5 4.4 3.3 65 2.8 WNW 19 24 10 13 1016.4 - 0.0
29/11:00pm 9.5 4.8 3.3 65 2.8 NW 17 22 9 12 1016.7 - 0.0
29/10:30pm 10.1 4.9 3.4 63 3.0 NW 20 28 11 15 1016.5 - 0.0
29/10:00pm 10.3 4.7 3.6 63 3.1 NW 22 28 12 15 1016.3 - 0.0
29/09:30pm 10.9 5.0 3.9 62 3.2 NW 24 32 13 17 1016.1 - 0.0
29/09:00pm 10.9 5.0 4.1 63 3.1 WNW 24 35 13 19 1015.9 1017.0 0.0
29/08:30pm 11.3 4.3 4.3 62 3.3 WNW 30 39 16 21 1015.7 - 0.0
29/08:00pm 11.3 4.7 4.3 62 3.3 WNW 28 39 15 21 1015.5 - 0.0
29/07:30pm 11.3 4.3 4.3 62 3.3 WNW 30 43 16 23 1015.1 - 0.0
29/07:00pm 11.5 4.0 4.5 62 3.3 WNW 33 52 18 28 1014.8 - 0.0
29/06:31pm 11.9 4.4 4.6 61 3.4 WNW 33 56 18 30 1014.6 - 0.0
29/06:30pm 11.6 4.3 4.6 62 3.3 WNW 32 44 17 24 1014.6 - 0.0
29/06:05pm 11.8 3.9 4.5 61 3.4 WNW 35 54 19 29 1014.4 - 0.0
29/06:00pm 11.9 3.7 4.6 61 3.4 WNW 37 54 20 29 1014.4 1015.5 0.0
29/05:35pm 12.2 4.4 4.7 60 3.6 WNW 35 54 19 29 1014.0 - 0.0
29/05:30pm 12.2 4.4 4.7 60 3.6 WNW 35 48 19 26 1014.0 - 0.0
29/05:00pm 12.7 3.7 4.7 58 3.8 WNW 41 59 22 32 1013.8 - 0.0
29/04:31pm 13.4 4.0 4.6 55 4.2 WNW 43 61 23 33 1013.5 - 0.0
29/04:30pm 13.5 3.9 4.6 55 4.3 WNW 44 61 24 33 1013.5 - 0.0
29/04:12pm 13.9 5.7 4.5 53 4.5 WNW 37 56 20 30 1013.7 - 0.0
29/04:00pm 14.1 4.6 4.7 53 4.5 WNW 44 57 24 31 1013.7 - 0.0
29/03:35pm 14.6 5.9 4.3 50 4.9 WNW 39 70 21 38 1014.0 - 0.0
29/03:30pm 14.7 6.4 4.4 50 4.9 WNW 37 54 20 29 1013.9 - 0.0
29/03:00pm 15.0 5.3 3.8 47 5.3 WNW 44 69 24 37 1013.8 1014.9 0.0
29/02:31pm 15.4 6.0 4.2 47 5.4 WNW 43 61 23 33 1013.6 - 0.0
29/02:30pm 15.3 5.7 4.4 48 5.3 WNW 44 61 24 33 1013.7 - 0.0
29/02:00pm 15.0 3.7 3.2 45 5.5 WNW 52 74 28 40 1012.6 - 0.0
29/01:30pm 14.8 4.1 2.7 44 5.6 WNW 48 69 26 37 1013.9 - 0.0
29/01:05pm 15.2 5.3 2.7 43 5.8 WNW 44 63 24 34 1014.6 - 0.0
29/01:00pm 15.4 5.5 2.6 42 5.9 WNW 44 59 24 32 1014.7 - 0.0
29/12:45pm 15.0 4.6 1.9 41 6.0 WNW 46 65 25 35 1014.8 - 0.0
29/12:30pm 15.2 5.5 2.7 43 5.8 NW 43 59 23 32 1014.8 - 0.0
29/12:00pm 14.8 4.6 3.0 45 5.5 NW 46 63 25 34 1015.0 1016.1 0.0
29/11:30am 14.3 2.4 1.9 43 5.6 WNW 54 72 29 39 1015.1 - 0.0
29/11:25am 13.8 2.1 1.1 42 5.6 WNW 52 72 28 39 1015.2 - 0.0
29/11:00am 13.7 2.1 1.7 44 5.4 WNW 52 67 28 36 1016.4 - 0.0
29/10:51am 13.4 0.4 1.4 44 5.3 WNW 59 78 32 42 1016.3 - 0.0
29/10:49am 13.2 -0.6 0.9 43 5.4 WNW 63 78 34 42 1016.2 - 0.0
29/10:33am 13.8 3.9 1.5 43 5.5 WNW 43 61 23 33 1016.2 - 0.0
29/10:30am 13.7 3.6 1.7 44 5.4 WNW 44 61 24 33 1016.1 - 0.0
29/10:05am 12.9 1.5 0.6 43 5.4 WNW 50 69 27 37 1015.8 - 0.0
29/10:00am 12.9 2.3 0.6 43 5.4 WNW 46 63 25 34 1015.9 - 0.0
29/09:38am 12.5 0.7 0.6 44 5.2 WNW 52 70 28 38 1016.0 - 0.0
29/09:30am 12.0 -0.8 0.1 44 5.1 WNW 57 69 31 37 1016.1 - 0.0
29/09:18am 12.1 0.9 -0.4 42 5.3 WNW 48 69 26 37 1015.9 - 0.0
29/09:00am 11.7 1.6 0.5 46 4.8 WNW 43 57 23 31 1015.7 1016.8 0.0
29/08:39am 11.3 0.2 -0.2 45 4.8 WNW 48 67 26 36 1015.4 - 0.0
29/08:30am 11.0 0.7 0.1 47 4.6 WNW 44 59 24 32 1015.5 - 0.0
29/08:13am 10.6 0.9 0.3 49 4.4 WNW 41 59 22 32 1015.6 - 0.0
29/08:00am 9.4 1.2 0.3 53 3.8 WNW 33 46 18 25 1015.7 - 0.0
29/07:30am 9.2 1.9 0.1 53 3.8 WNW 28 41 15 22 1015.9 - 0.0
29/07:00am 9.2 3.1 0.1 53 3.8 NW 22 35 12 19 1016.1 - 0.0
29/06:30am 9.0 2.5 0.5 55 3.6 NW 24 33 13 18 1016.3 - 0.0
29/06:00am 9.0 2.6 0.7 56 3.5 NW 24 32 13 17 1016.2 1017.4 0.0
29/05:30am 8.8 2.8 1.2 59 3.2 NW 22 32 12 17 1016.2 - 0.0
29/05:00am 8.5 2.2 1.4 61 3.0 WNW 24 33 13 18 1016.3 - 0.0
29/04:30am 8.5 2.6 1.6 62 3.0 NW 22 33 12 18 1016.3 - 0.0
29/04:00am 7.9 3.0 1.7 65 2.6 NW 17 22 9 12 1016.8 - 0.0
29/03:30am 7.7 2.4 2.0 67 2.4 NW 19 22 10 12 1016.7 - 0.0
29/03:00am 5.6 1.7 1.2 73 1.8 N 11 17 6 9 1016.5 1017.7 0.0
29/02:30am 6.4 2.6 1.7 72 2.0 N 11 17 6 9 1016.8 - 0.0
29/02:00am 7.9 4.6 2.6 69 2.3 NNW 9 13 5 7 1017.0 - 0.0
29/01:30am 7.3 3.3 2.8 73 2.0 NNW 13 19 7 10 1017.3 - 0.0
29/01:00am 8.0 4.4 2.9 70 2.2 N 11 15 6 8 1017.7 - 0.0
29/12:30am 8.2 4.3 3.5 72 2.1 NNW 13 20 7 11 1017.6 - 0.0
29/12:00am 8.1 3.8 3.4 72 2.1 NW 15 19 8 10 1017.8 1019.0 0.0
 
Date/Time
EST
Temp
°C
App
Temp
°C
Dew
Point
Rel
Hum
%
Delta-T
°C
Wind Press
QNH
hPa
Press
MSL
hPa
Rain
since 9 am
mm
Dir
 
Spd
km/h
Gust
km/h
Spd
kts
Gust
kts
28/11:30pm 8.4 4.1 3.5 71 2.2 WNW 15 20 8 11 1017.9 - 0.0
28/11:00pm 8.6 3.3 3.2 69 2.4 NW 20 28 11 15 1018.0 - 0.0
28/10:30pm 8.2 4.7 3.3 71 2.2 NNW 11 17 6 9 1018.6 - 0.0
28/10:00pm 8.4 3.8 3.7 72 2.1 NNW 17 24 9 13 1018.6 - 0.0
28/09:30pm 8.5 4.0 4.1 74 2.0 NNW 17 24 9 13 1018.6 - 0.0
28/09:00pm 7.5 4.5 3.9 78 1.6 NW 9 17 5 9 1018.9 1020.1 0.0
28/08:30pm 6.9 3.5 4.0 82 1.3 NNW 11 15 6 8 1018.9 - 0.0
28/08:00pm 5.8 2.3 3.3 84 1.1 N 11 13 6 7 1019.1 - 0.0
28/07:30pm 5.7 2.4 2.4 79 1.4 N 9 13 5 7 1019.1 - 0.0
28/07:00pm 8.0 5.0 4.0 76 1.8 NNW 9 13 5 7 1019.1 - 0.0
28/06:30pm 7.2 3.7 3.3 76 1.7 NNW 11 15 6 8 1019.0 - 0.0
28/06:00pm 8.3 4.4 3.6 72 2.1 NW 13 17 7 9 1019.1 1020.3 0.0
28/05:30pm 9.1 4.6 4.3 72 2.2 WNW 17 20 9 11 1018.9 - 0.0
28/05:00pm 10.2 5.4 4.4 67 2.7 W 19 26 10 14 1019.0 - 0.0
28/04:30pm 11.7 5.6 4.7 62 3.3 W 26 35 14 19 1018.8 - 0.0
28/04:00pm 11.1 5.4 4.8 65 3.0 W 24 33 13 18 1018.5 - 0.0
28/03:30pm 11.3 4.5 5.0 65 3.0 W 30 37 16 20 1018.8 - 0.0
28/03:00pm 11.4 4.5 4.8 64 3.1 W 30 39 16 21 1018.8 1019.9 0.0
28/02:30pm 11.7 4.2 4.4 61 3.4 W 33 46 18 25 1018.7 - 0.0
28/02:00pm 12.1 4.7 5.0 62 3.4 WNW 33 43 18 23 1019.0 - 0.0
28/01:30pm 11.4 3.5 4.2 61 3.4 W 35 48 19 26 1018.9 - 0.0
28/01:00pm 11.5 3.8 5.2 65 3.0 WNW 35 46 19 25 1019.2 - 0.0
28/12:30pm 11.1 3.9 5.2 67 2.8 WNW 32 41 17 22 1020.1 - 0.0
28/12:00pm 10.3 3.1 4.9 69 2.5 W 32 44 17 24 1020.7 1021.9 0.0
28/11:30am 9.3 2.0 4.3 71 2.3 W 32 41 17 22 1021.2 - 0.0
28/11:00am 8.9 1.8 5.5 79 1.6 WNW 32 39 17 21 1021.2 - 0.0
28/10:30am 7.9 2.3 5.4 84 1.2 W 24 33 13 18 1021.7 - 0.0
28/10:00am 7.0 2.3 5.0 87 0.9 WNW 19 24 10 13 1021.9 - 0.0
28/09:30am 6.6 4.2 5.1 90 0.7 W 7 13 4 7 1022.0 - 0.0
28/09:20am 6.4 3.5 4.9 90 0.7 W 9 13 5 7 1022.1 - 0.0
28/09:00am 5.9 2.6 4.4 90 0.7 W 11 13 6 7 1022.2 1023.4 0.0
28/08:54am 5.9 3.0 4.5 91 0.6 W 9 13 5 7 1022.1 - 0.0
28/08:30am 5.4 2.5 4.4 93 0.4 WSW 9 11 5 6 1022.1 - 0.0
28/08:00am 4.7 2.0 3.7 93 0.4 W 7 9 4 5 1022.0 - 0.0
28/07:30am 4.5 -0.2 3.3 92 0.5 WNW 17 22 9 12 1021.8 - 0.0

Other Formats:

Comma delimited format used in spreadsheet applications
http://www.bom.gov.au/fwo/IDN60801/IDN60801.95716.axf

JavaScript Object Notation format (JSON) in row-major order
http://www.bom.gov.au/fwo/IDN60801/IDN60801.95716.json